sensor_id;sensor_type;location;lat;lon;timestamp;P1;durP1;ratioP1;P2;durP2;ratioP2
61250;SDS011;47126;47.508;8.590;2024-03-07T00:01:01;22.73;;;8.77;;
61250;SDS011;47126;47.508;8.590;2024-03-07T00:03:28;20.23;;;8.52;;
61250;SDS011;47126;47.508;8.590;2024-03-07T00:05:54;19.48;;;8.80;;
61250;SDS011;47126;47.508;8.590;2024-03-07T00:08:20;22.00;;;10.95;;
61250;SDS011;47126;47.508;8.590;2024-03-07T00:10:46;21.58;;;9.73;;
61250;SDS011;47126;47.508;8.590;2024-03-07T00:13:12;23.27;;;11.50;;
61250;SDS011;47126;47.508;8.590;2024-03-07T00:15:38;19.95;;;9.50;;
61250;SDS011;47126;47.508;8.590;2024-03-07T00:18:06;18.67;;;7.53;;
61250;SDS011;47126;47.508;8.590;2024-03-07T00:20:32;21.30;;;9.68;;
61250;SDS011;47126;47.508;8.590;2024-03-07T00:22:58;19.17;;;8.25;;
61250;SDS011;47126;47.508;8.590;2024-03-07T00:25:24;17.98;;;8.02;;
61250;SDS011;47126;47.508;8.590;2024-03-07T00:27:51;19.67;;;7.68;;
61250;SDS011;47126;47.508;8.590;2024-03-07T00:30:18;19.30;;;8.13;;
61250;SDS011;47126;47.508;8.590;2024-03-07T00:32:45;20.35;;;8.18;;
61250;SDS011;47126;47.508;8.590;2024-03-07T00:35:12;19.67;;;8.30;;
61250;SDS011;47126;47.508;8.590;2024-03-07T00:37:38;16.35;;;7.28;;
61250;SDS011;47126;47.508;8.590;2024-03-07T00:40:04;19.65;;;7.65;;
61250;SDS011;47126;47.508;8.590;2024-03-07T00:42:31;15.20;;;7.30;;
61250;SDS011;47126;47.508;8.590;2024-03-07T00:44:57;17.10;;;7.15;;
61250;SDS011;47126;47.508;8.590;2024-03-07T00:47:23;17.77;;;8.05;;
61250;SDS011;47126;47.508;8.590;2024-03-07T00:49:49;19.55;;;7.72;;
61250;SDS011;47126;47.508;8.590;2024-03-07T00:52:15;17.85;;;8.77;;
61250;SDS011;47126;47.508;8.590;2024-03-07T00:54:41;20.08;;;7.93;;
61250;SDS011;47126;47.508;8.590;2024-03-07T00:57:07;16.90;;;7.45;;
61250;SDS011;47126;47.508;8.590;2024-03-07T00:59:33;17.77;;;6.97;;
61250;SDS011;47126;47.508;8.590;2024-03-07T01:02:00;15.15;;;7.38;;
61250;SDS011;47126;47.508;8.590;2024-03-07T01:04:26;21.80;;;7.65;;
61250;SDS011;47126;47.508;8.590;2024-03-07T01:06:56;20.52;;;7.57;;
61250;SDS011;47126;47.508;8.590;2024-03-07T01:09:23;17.92;;;7.97;;
61250;SDS011;47126;47.508;8.590;2024-03-07T01:11:49;19.20;;;7.95;;
61250;SDS011;47126;47.508;8.590;2024-03-07T01:14:15;16.92;;;7.47;;
61250;SDS011;47126;47.508;8.590;2024-03-07T01:16:41;18.77;;;8.50;;
61250;SDS011;47126;47.508;8.590;2024-03-07T01:19:07;20.67;;;9.85;;
61250;SDS011;47126;47.508;8.590;2024-03-07T01:21:34;19.73;;;8.57;;
61250;SDS011;47126;47.508;8.590;2024-03-07T01:24:00;21.27;;;8.40;;
61250;SDS011;47126;47.508;8.590;2024-03-07T01:26:29;16.83;;;7.25;;
61250;SDS011;47126;47.508;8.590;2024-03-07T01:28:58;18.35;;;7.95;;
61250;SDS011;47126;47.508;8.590;2024-03-07T01:31:25;18.10;;;7.75;;
61250;SDS011;47126;47.508;8.590;2024-03-07T01:33:51;24.17;;;8.63;;
61250;SDS011;47126;47.508;8.590;2024-03-07T01:36:18;18.25;;;7.78;;
61250;SDS011;47126;47.508;8.590;2024-03-07T01:38:45;20.42;;;8.60;;
61250;SDS011;47126;47.508;8.590;2024-03-07T01:41:11;19.00;;;7.95;;
61250;SDS011;47126;47.508;8.590;2024-03-07T01:43:37;20.10;;;7.80;;
61250;SDS011;47126;47.508;8.590;2024-03-07T01:46:03;15.82;;;7.10;;
61250;SDS011;47126;47.508;8.590;2024-03-07T01:48:30;18.88;;;7.93;;
61250;SDS011;47126;47.508;8.590;2024-03-07T01:50:57;18.52;;;8.88;;
61250;SDS011;47126;47.508;8.590;2024-03-07T01:53:24;19.20;;;8.32;;
61250;SDS011;47126;47.508;8.590;2024-03-07T01:55:50;16.70;;;7.45;;
61250;SDS011;47126;47.508;8.590;2024-03-07T01:58:18;18.00;;;7.38;;
61250;SDS011;47126;47.508;8.590;2024-03-07T02:00:44;18.80;;;8.60;;
61250;SDS011;47126;47.508;8.590;2024-03-07T02:03:12;17.52;;;7.50;;
61250;SDS011;47126;47.508;8.590;2024-03-07T02:05:38;17.25;;;7.53;;
61250;SDS011;47126;47.508;8.590;2024-03-07T02:08:04;20.25;;;8.45;;
61250;SDS011;47126;47.508;8.590;2024-03-07T02:10:31;18.33;;;8.68;;
61250;SDS011;47126;47.508;8.590;2024-03-07T02:12:57;19.23;;;8.50;;
61250;SDS011;47126;47.508;8.590;2024-03-07T02:15:23;19.58;;;7.65;;
61250;SDS011;47126;47.508;8.590;2024-03-07T02:17:49;15.52;;;7.22;;
61250;SDS011;47126;47.508;8.590;2024-03-07T02:20:15;19.63;;;8.27;;
61250;SDS011;47126;47.508;8.590;2024-03-07T02:22:41;17.02;;;8.10;;
61250;SDS011;47126;47.508;8.590;2024-03-07T02:25:07;19.15;;;8.23;;
61250;SDS011;47126;47.508;8.590;2024-03-07T02:27:37;18.85;;;8.23;;
61250;SDS011;47126;47.508;8.590;2024-03-07T02:30:04;19.55;;;7.63;;
61250;SDS011;47126;47.508;8.590;2024-03-07T02:32:33;18.13;;;8.40;;
61250;SDS011;47126;47.508;8.590;2024-03-07T02:34:59;19.48;;;8.38;;
61250;SDS011;47126;47.508;8.590;2024-03-07T02:37:25;21.73;;;9.20;;
61250;SDS011;47126;47.508;8.590;2024-03-07T02:39:51;20.83;;;9.45;;
61250;SDS011;47126;47.508;8.590;2024-03-07T02:42:17;19.55;;;8.18;;
61250;SDS011;47126;47.508;8.590;2024-03-07T02:44:43;21.98;;;8.60;;
61250;SDS011;47126;47.508;8.590;2024-03-07T02:47:09;16.58;;;7.75;;
61250;SDS011;47126;47.508;8.590;2024-03-07T02:49:35;20.80;;;7.93;;
61250;SDS011;47126;47.508;8.590;2024-03-07T02:52:01;23.77;;;9.55;;
61250;SDS011;47126;47.508;8.590;2024-03-07T02:54:31;20.65;;;9.20;;
61250;SDS011;47126;47.508;8.590;2024-03-07T02:56:57;22.92;;;8.73;;
61250;SDS011;47126;47.508;8.590;2024-03-07T02:59:23;20.42;;;8.35;;
61250;SDS011;47126;47.508;8.590;2024-03-07T03:01:49;21.70;;;9.75;;
61250;SDS011;47126;47.508;8.590;2024-03-07T03:04:15;21.63;;;9.38;;
61250;SDS011;47126;47.508;8.590;2024-03-07T03:06:42;22.38;;;8.90;;
61250;SDS011;47126;47.508;8.590;2024-03-07T03:09:08;22.35;;;9.35;;
61250;SDS011;47126;47.508;8.590;2024-03-07T03:11:42;17.13;;;7.85;;
61250;SDS011;47126;47.508;8.590;2024-03-07T03:14:08;19.30;;;8.57;;
61250;SDS011;47126;47.508;8.590;2024-03-07T03:16:35;19.00;;;8.32;;
61250;SDS011;47126;47.508;8.590;2024-03-07T03:19:02;21.23;;;8.98;;
61250;SDS011;47126;47.508;8.590;2024-03-07T03:21:28;19.35;;;8.15;;
61250;SDS011;47126;47.508;8.590;2024-03-07T03:23:54;18.77;;;8.50;;
61250;SDS011;47126;47.508;8.590;2024-03-07T03:26:21;20.23;;;7.50;;
61250;SDS011;47126;47.508;8.590;2024-03-07T03:28:47;19.15;;;7.88;;
61250;SDS011;47126;47.508;8.590;2024-03-07T03:31:13;17.52;;;7.30;;
61250;SDS011;47126;47.508;8.590;2024-03-07T03:33:39;18.58;;;8.30;;
61250;SDS011;47126;47.508;8.590;2024-03-07T03:36:08;16.50;;;7.63;;
61250;SDS011;47126;47.508;8.590;2024-03-07T03:38:36;17.60;;;7.13;;
61250;SDS011;47126;47.508;8.590;2024-03-07T03:41:02;18.67;;;8.13;;
61250;SDS011;47126;47.508;8.590;2024-03-07T03:43:29;18.30;;;7.80;;
61250;SDS011;47126;47.508;8.590;2024-03-07T03:45:57;18.08;;;8.30;;
61250;SDS011;47126;47.508;8.590;2024-03-07T03:48:23;19.23;;;8.40;;
61250;SDS011;47126;47.508;8.590;2024-03-07T03:50:49;17.15;;;7.32;;
61250;SDS011;47126;47.508;8.590;2024-03-07T03:53:15;19.88;;;7.90;;
61250;SDS011;47126;47.508;8.590;2024-03-07T03:55:41;19.25;;;8.85;;
61250;SDS011;47126;47.508;8.590;2024-03-07T03:58:07;21.92;;;8.63;;
61250;SDS011;47126;47.508;8.590;2024-03-07T04:00:34;19.95;;;8.68;;
61250;SDS011;47126;47.508;8.590;2024-03-07T04:03:00;21.23;;;8.55;;
61250;SDS011;47126;47.508;8.590;2024-03-07T04:05:26;19.30;;;8.55;;
61250;SDS011;47126;47.508;8.590;2024-03-07T04:07:54;30.75;;;11.82;;
61250;SDS011;47126;47.508;8.590;2024-03-07T04:10:21;27.15;;;8.93;;
61250;SDS011;47126;47.508;8.590;2024-03-07T04:12:47;26.48;;;9.10;;
61250;SDS011;47126;47.508;8.590;2024-03-07T04:15:14;27.63;;;9.30;;
61250;SDS011;47126;47.508;8.590;2024-03-07T04:17:41;22.50;;;9.13;;
61250;SDS011;47126;47.508;8.590;2024-03-07T04:20:08;27.42;;;9.63;;
61250;SDS011;47126;47.508;8.590;2024-03-07T04:22:35;29.20;;;9.68;;
61250;SDS011;47126;47.508;8.590;2024-03-07T04:25:05;27.35;;;10.13;;
61250;SDS011;47126;47.508;8.590;2024-03-07T04:27:32;29.45;;;11.43;;
61250;SDS011;47126;47.508;8.590;2024-03-07T04:29:59;30.35;;;10.18;;
61250;SDS011;47126;47.508;8.590;2024-03-07T04:32:28;34.38;;;11.65;;
61250;SDS011;47126;47.508;8.590;2024-03-07T04:34:54;30.15;;;10.10;;
61250;SDS011;47126;47.508;8.590;2024-03-07T04:37:22;33.13;;;11.75;;
61250;SDS011;47126;47.508;8.590;2024-03-07T04:39:48;25.05;;;9.77;;
61250;SDS011;47126;47.508;8.590;2024-03-07T04:42:14;32.65;;;11.05;;
61250;SDS011;47126;47.508;8.590;2024-03-07T04:44:41;31.23;;;9.93;;
61250;SDS011;47126;47.508;8.590;2024-03-07T04:47:07;27.63;;;9.88;;
61250;SDS011;47126;47.508;8.590;2024-03-07T04:49:33;34.90;;;12.35;;
61250;SDS011;47126;47.508;8.590;2024-03-07T04:52:00;29.63;;;11.07;;
61250;SDS011;47126;47.508;8.590;2024-03-07T04:54:26;30.70;;;10.10;;
61250;SDS011;47126;47.508;8.590;2024-03-07T04:56:53;29.38;;;10.50;;
61250;SDS011;47126;47.508;8.590;2024-03-07T04:59:20;28.75;;;11.20;;
61250;SDS011;47126;47.508;8.590;2024-03-07T05:01:46;33.25;;;11.45;;
61250;SDS011;47126;47.508;8.590;2024-03-07T05:04:13;32.30;;;10.85;;
61250;SDS011;47126;47.508;8.590;2024-03-07T05:06:40;35.20;;;11.45;;
61250;SDS011;47126;47.508;8.590;2024-03-07T05:09:07;36.05;;;12.88;;
61250;SDS011;47126;47.508;8.590;2024-03-07T05:11:34;35.75;;;11.63;;
61250;SDS011;47126;47.508;8.590;2024-03-07T05:14:00;29.77;;;10.60;;
61250;SDS011;47126;47.508;8.590;2024-03-07T05:16:30;32.40;;;13.32;;
61250;SDS011;47126;47.508;8.590;2024-03-07T05:18:57;28.93;;;10.27;;
61250;SDS011;47126;47.508;8.590;2024-03-07T05:21:24;29.30;;;11.45;;
61250;SDS011;47126;47.508;8.590;2024-03-07T05:24:06;30.50;;;10.75;;
61250;SDS011;47126;47.508;8.590;2024-03-07T05:26:33;31.05;;;10.98;;
61250;SDS011;47126;47.508;8.590;2024-03-07T05:29:05;26.40;;;10.45;;
61250;SDS011;47126;47.508;8.590;2024-03-07T05:31:32;25.08;;;9.82;;
61250;SDS011;47126;47.508;8.590;2024-03-07T05:34:02;25.33;;;11.15;;
61250;SDS011;47126;47.508;8.590;2024-03-07T05:36:30;30.45;;;11.05;;
61250;SDS011;47126;47.508;8.590;2024-03-07T05:38:56;30.55;;;12.20;;
61250;SDS011;47126;47.508;8.590;2024-03-07T05:41:23;28.02;;;10.45;;
61250;SDS011;47126;47.508;8.590;2024-03-07T05:43:49;27.92;;;10.55;;
61250;SDS011;47126;47.508;8.590;2024-03-07T05:46:18;24.90;;;10.27;;
61250;SDS011;47126;47.508;8.590;2024-03-07T05:48:44;27.15;;;10.38;;
61250;SDS011;47126;47.508;8.590;2024-03-07T05:51:15;28.00;;;10.80;;
61250;SDS011;47126;47.508;8.590;2024-03-07T05:53:41;26.38;;;9.85;;
61250;SDS011;47126;47.508;8.590;2024-03-07T05:56:07;23.23;;;9.15;;
61250;SDS011;47126;47.508;8.590;2024-03-07T05:58:33;31.38;;;11.68;;
61250;SDS011;47126;47.508;8.590;2024-03-07T06:00:59;27.15;;;11.43;;
61250;SDS011;47126;47.508;8.590;2024-03-07T06:03:25;26.27;;;10.10;;
61250;SDS011;47126;47.508;8.590;2024-03-07T06:05:51;22.25;;;8.70;;
61250;SDS011;47126;47.508;8.590;2024-03-07T06:08:18;23.23;;;10.35;;
61250;SDS011;47126;47.508;8.590;2024-03-07T06:10:45;22.85;;;9.80;;
61250;SDS011;47126;47.508;8.590;2024-03-07T06:13:11;22.77;;;9.85;;
61250;SDS011;47126;47.508;8.590;2024-03-07T06:15:38;22.65;;;9.80;;
61250;SDS011;47126;47.508;8.590;2024-03-07T06:18:05;25.15;;;9.23;;
61250;SDS011;47126;47.508;8.590;2024-03-07T06:20:33;25.38;;;11.02;;
61250;SDS011;47126;47.508;8.590;2024-03-07T06:23:00;23.90;;;9.23;;
61250;SDS011;47126;47.508;8.590;2024-03-07T06:25:30;21.95;;;8.95;;
61250;SDS011;47126;47.508;8.590;2024-03-07T06:28:04;23.17;;;9.30;;
61250;SDS011;47126;47.508;8.590;2024-03-07T06:30:41;20.13;;;8.65;;
61250;SDS011;47126;47.508;8.590;2024-03-07T06:33:10;19.90;;;8.82;;
61250;SDS011;47126;47.508;8.590;2024-03-07T06:35:37;27.77;;;10.70;;
61250;SDS011;47126;47.508;8.590;2024-03-07T06:38:04;22.35;;;9.60;;
61250;SDS011;47126;47.508;8.590;2024-03-07T06:40:40;22.75;;;9.85;;
61250;SDS011;47126;47.508;8.590;2024-03-07T06:43:08;26.67;;;10.60;;
61250;SDS011;47126;47.508;8.590;2024-03-07T06:45:37;22.80;;;9.48;;
61250;SDS011;47126;47.508;8.590;2024-03-07T06:48:05;23.30;;;10.13;;
61250;SDS011;47126;47.508;8.590;2024-03-07T06:50:33;26.20;;;9.50;;
61250;SDS011;47126;47.508;8.590;2024-03-07T06:52:59;26.73;;;10.40;;
61250;SDS011;47126;47.508;8.590;2024-03-07T06:55:25;24.40;;;10.65;;
61250;SDS011;47126;47.508;8.590;2024-03-07T06:57:52;22.65;;;10.20;;
61250;SDS011;47126;47.508;8.590;2024-03-07T07:00:19;23.23;;;9.88;;
61250;SDS011;47126;47.508;8.590;2024-03-07T07:02:46;22.88;;;9.43;;
61250;SDS011;47126;47.508;8.590;2024-03-07T07:05:13;24.17;;;9.40;;
61250;SDS011;47126;47.508;8.590;2024-03-07T07:07:43;23.65;;;10.00;;
61250;SDS011;47126;47.508;8.590;2024-03-07T07:10:09;25.88;;;10.88;;
61250;SDS011;47126;47.508;8.590;2024-03-07T07:12:41;24.60;;;9.82;;
61250;SDS011;47126;47.508;8.590;2024-03-07T07:15:08;21.38;;;8.93;;
61250;SDS011;47126;47.508;8.590;2024-03-07T07:17:35;23.48;;;10.50;;
61250;SDS011;47126;47.508;8.590;2024-03-07T07:20:01;26.10;;;10.80;;
61250;SDS011;47126;47.508;8.590;2024-03-07T07:22:34;23.42;;;10.30;;
61250;SDS011;47126;47.508;8.590;2024-03-07T07:25:00;24.92;;;9.88;;
61250;SDS011;47126;47.508;8.590;2024-03-07T07:27:26;23.30;;;9.32;;
61250;SDS011;47126;47.508;8.590;2024-03-07T07:29:52;19.05;;;8.43;;
61250;SDS011;47126;47.508;8.590;2024-03-07T07:32:20;24.08;;;9.45;;
61250;SDS011;47126;47.508;8.590;2024-03-07T07:34:48;21.15;;;9.45;;
61250;SDS011;47126;47.508;8.590;2024-03-07T07:37:14;17.23;;;8.20;;
61250;SDS011;47126;47.508;8.590;2024-03-07T07:39:40;23.15;;;8.65;;
61250;SDS011;47126;47.508;8.590;2024-03-07T07:42:06;26.90;;;11.60;;
61250;SDS011;47126;47.508;8.590;2024-03-07T07:44:34;22.90;;;9.45;;
61250;SDS011;47126;47.508;8.590;2024-03-07T07:47:00;23.83;;;8.98;;
61250;SDS011;47126;47.508;8.590;2024-03-07T07:49:26;20.45;;;9.10;;
61250;SDS011;47126;47.508;8.590;2024-03-07T07:51:53;23.85;;;9.18;;
61250;SDS011;47126;47.508;8.590;2024-03-07T07:54:20;19.50;;;9.13;;
61250;SDS011;47126;47.508;8.590;2024-03-07T07:56:46;21.45;;;9.27;;
61250;SDS011;47126;47.508;8.590;2024-03-07T07:59:13;22.88;;;10.05;;
61250;SDS011;47126;47.508;8.590;2024-03-07T08:01:39;22.75;;;9.38;;
61250;SDS011;47126;47.508;8.590;2024-03-07T08:04:07;20.50;;;9.30;;
61250;SDS011;47126;47.508;8.590;2024-03-07T08:06:34;23.40;;;9.77;;
61250;SDS011;47126;47.508;8.590;2024-03-07T08:09:00;22.63;;;8.88;;
61250;SDS011;47126;47.508;8.590;2024-03-07T08:11:26;24.45;;;9.55;;
61250;SDS011;47126;47.508;8.590;2024-03-07T08:13:53;24.33;;;8.45;;
61250;SDS011;47126;47.508;8.590;2024-03-07T08:16:19;19.58;;;8.77;;
61250;SDS011;47126;47.508;8.590;2024-03-07T08:18:45;20.83;;;9.10;;
61250;SDS011;47126;47.508;8.590;2024-03-07T08:21:11;21.42;;;8.98;;
61250;SDS011;47126;47.508;8.590;2024-03-07T08:23:38;24.40;;;9.38;;
61250;SDS011;47126;47.508;8.590;2024-03-07T08:26:04;25.08;;;9.40;;
61250;SDS011;47126;47.508;8.590;2024-03-07T08:28:30;25.05;;;9.13;;
61250;SDS011;47126;47.508;8.590;2024-03-07T08:30:56;23.77;;;9.52;;
61250;SDS011;47126;47.508;8.590;2024-03-07T08:33:24;25.80;;;9.55;;
61250;SDS011;47126;47.508;8.590;2024-03-07T08:35:51;27.10;;;8.80;;
61250;SDS011;47126;47.508;8.590;2024-03-07T08:38:18;18.42;;;8.85;;
61250;SDS011;47126;47.508;8.590;2024-03-07T08:40:47;24.30;;;9.32;;
61250;SDS011;47126;47.508;8.590;2024-03-07T08:43:26;23.45;;;10.07;;
61250;SDS011;47126;47.508;8.590;2024-03-07T08:45:55;25.85;;;9.63;;
61250;SDS011;47126;47.508;8.590;2024-03-07T08:48:22;23.75;;;9.60;;
61250;SDS011;47126;47.508;8.590;2024-03-07T08:50:48;23.75;;;10.15;;
61250;SDS011;47126;47.508;8.590;2024-03-07T08:53:14;23.33;;;9.32;;
61250;SDS011;47126;47.508;8.590;2024-03-07T08:55:40;25.60;;;11.32;;
61250;SDS011;47126;47.508;8.590;2024-03-07T08:58:07;29.02;;;10.23;;
61250;SDS011;47126;47.508;8.590;2024-03-07T09:00:34;25.27;;;9.45;;
61250;SDS011;47126;47.508;8.590;2024-03-07T09:03:00;22.67;;;8.82;;
61250;SDS011;47126;47.508;8.590;2024-03-07T09:05:29;26.88;;;9.63;;
61250;SDS011;47126;47.508;8.590;2024-03-07T09:07:58;23.20;;;9.40;;
61250;SDS011;47126;47.508;8.590;2024-03-07T09:10:25;23.65;;;9.85;;
61250;SDS011;47126;47.508;8.590;2024-03-07T09:12:54;23.70;;;9.00;;
61250;SDS011;47126;47.508;8.590;2024-03-07T09:15:20;22.63;;;8.73;;
61250;SDS011;47126;47.508;8.590;2024-03-07T09:17:46;25.48;;;9.20;;
61250;SDS011;47126;47.508;8.590;2024-03-07T09:20:12;23.92;;;8.85;;
61250;SDS011;47126;47.508;8.590;2024-03-07T09:22:44;25.08;;;9.00;;
61250;SDS011;47126;47.508;8.590;2024-03-07T09:25:10;22.23;;;8.73;;
61250;SDS011;47126;47.508;8.590;2024-03-07T09:27:37;25.85;;;8.75;;
61250;SDS011;47126;47.508;8.590;2024-03-07T09:30:05;28.95;;;10.02;;
61250;SDS011;47126;47.508;8.590;2024-03-07T09:32:37;24.65;;;9.40;;
61250;SDS011;47126;47.508;8.590;2024-03-07T09:35:03;29.15;;;9.40;;
61250;SDS011;47126;47.508;8.590;2024-03-07T09:37:32;23.98;;;10.07;;
61250;SDS011;47126;47.508;8.590;2024-03-07T09:39:58;22.98;;;8.27;;
61250;SDS011;47126;47.508;8.590;2024-03-07T09:42:29;24.58;;;8.05;;
61250;SDS011;47126;47.508;8.590;2024-03-07T09:44:56;20.27;;;9.07;;
61250;SDS011;47126;47.508;8.590;2024-03-07T09:47:24;22.25;;;8.18;;
61250;SDS011;47126;47.508;8.590;2024-03-07T09:49:51;24.23;;;10.63;;
61250;SDS011;47126;47.508;8.590;2024-03-07T09:52:18;21.45;;;8.73;;
61250;SDS011;47126;47.508;8.590;2024-03-07T09:54:44;22.98;;;9.25;;
61250;SDS011;47126;47.508;8.590;2024-03-07T09:57:10;20.63;;;8.18;;
61250;SDS011;47126;47.508;8.590;2024-03-07T09:59:38;26.10;;;9.25;;
61250;SDS011;47126;47.508;8.590;2024-03-07T10:02:08;29.52;;;10.35;;
61250;SDS011;47126;47.508;8.590;2024-03-07T10:04:41;25.95;;;9.75;;
61250;SDS011;47126;47.508;8.590;2024-03-07T10:07:17;26.40;;;10.40;;
61250;SDS011;47126;47.508;8.590;2024-03-07T10:09:44;26.65;;;10.18;;
61250;SDS011;47126;47.508;8.590;2024-03-07T10:12:10;30.35;;;11.90;;
61250;SDS011;47126;47.508;8.590;2024-03-07T10:14:47;27.25;;;9.77;;
61250;SDS011;47126;47.508;8.590;2024-03-07T10:17:14;26.17;;;9.93;;
61250;SDS011;47126;47.508;8.590;2024-03-07T10:19:41;27.52;;;10.38;;
61250;SDS011;47126;47.508;8.590;2024-03-07T10:22:07;28.08;;;9.95;;
61250;SDS011;47126;47.508;8.590;2024-03-07T10:24:33;29.17;;;11.18;;
61250;SDS011;47126;47.508;8.590;2024-03-07T10:26:59;32.20;;;11.43;;
61250;SDS011;47126;47.508;8.590;2024-03-07T10:29:26;27.35;;;11.18;;
61250;SDS011;47126;47.508;8.590;2024-03-07T10:31:52;30.23;;;11.13;;
61250;SDS011;47126;47.508;8.590;2024-03-07T10:34:18;29.75;;;11.40;;
61250;SDS011;47126;47.508;8.590;2024-03-07T10:36:45;27.02;;;11.15;;
61250;SDS011;47126;47.508;8.590;2024-03-07T10:39:11;27.90;;;11.25;;
61250;SDS011;47126;47.508;8.590;2024-03-07T10:41:45;26.23;;;11.27;;
61250;SDS011;47126;47.508;8.590;2024-03-07T10:44:33;31.58;;;12.45;;
61250;SDS011;47126;47.508;8.590;2024-03-07T10:46:58;29.90;;;10.68;;
61250;SDS011;47126;47.508;8.590;2024-03-07T10:49:28;25.75;;;10.65;;
61250;SDS011;47126;47.508;8.590;2024-03-07T10:57:15;26.88;;;11.32;;
61250;SDS011;47126;47.508;8.590;2024-03-07T10:59:45;22.52;;;9.77;;
61250;SDS011;47126;47.508;8.590;2024-03-07T11:04:41;30.00;;;9.52;;
61250;SDS011;47126;47.508;8.590;2024-03-07T11:07:08;26.05;;;10.50;;
61250;SDS011;47126;47.508;8.590;2024-03-07T11:09:37;29.52;;;10.50;;
61250;SDS011;47126;47.508;8.590;2024-03-07T11:12:11;31.17;;;11.05;;
61250;SDS011;47126;47.508;8.590;2024-03-07T11:14:37;25.45;;;9.80;;
61250;SDS011;47126;47.508;8.590;2024-03-07T11:17:06;28.02;;;10.50;;
61250;SDS011;47126;47.508;8.590;2024-03-07T11:19:33;23.83;;;9.65;;
61250;SDS011;47126;47.508;8.590;2024-03-07T11:22:03;26.90;;;10.48;;
61250;SDS011;47126;47.508;8.590;2024-03-07T11:24:48;24.88;;;9.52;;
61250;SDS011;47126;47.508;8.590;2024-03-07T11:27:28;23.60;;;9.02;;
61250;SDS011;47126;47.508;8.590;2024-03-07T11:29:59;26.67;;;9.32;;
61250;SDS011;47126;47.508;8.590;2024-03-07T11:32:34;21.88;;;9.88;;
61250;SDS011;47126;47.508;8.590;2024-03-07T11:35:00;25.65;;;10.32;;
61250;SDS011;47126;47.508;8.590;2024-03-07T11:38:06;28.75;;;9.98;;
61250;SDS011;47126;47.508;8.590;2024-03-07T11:42:52;22.85;;;9.57;;
61250;SDS011;47126;47.508;8.590;2024-03-07T11:45:19;36.72;;;18.10;;
61250;SDS011;47126;47.508;8.590;2024-03-07T11:47:50;24.05;;;9.70;;
61250;SDS011;47126;47.508;8.590;2024-03-07T11:50:23;20.35;;;9.90;;
61250;SDS011;47126;47.508;8.590;2024-03-07T11:52:51;27.38;;;10.95;;
61250;SDS011;47126;47.508;8.590;2024-03-07T11:55:17;26.35;;;11.57;;
61250;SDS011;47126;47.508;8.590;2024-03-07T11:57:44;26.10;;;11.45;;
61250;SDS011;47126;47.508;8.590;2024-03-07T12:00:12;27.20;;;11.43;;
61250;SDS011;47126;47.508;8.590;2024-03-07T12:02:41;26.88;;;11.45;;
61250;SDS011;47126;47.508;8.590;2024-03-07T12:05:12;27.45;;;10.65;;
61250;SDS011;47126;47.508;8.590;2024-03-07T12:07:40;23.20;;;10.77;;
61250;SDS011;47126;47.508;8.590;2024-03-07T12:10:08;28.30;;;10.75;;
61250;SDS011;47126;47.508;8.590;2024-03-07T12:12:35;22.38;;;10.13;;
61250;SDS011;47126;47.508;8.590;2024-03-07T12:15:03;22.85;;;10.50;;
61250;SDS011;47126;47.508;8.590;2024-03-07T12:17:40;22.70;;;9.95;;
61250;SDS011;47126;47.508;8.590;2024-03-07T12:20:06;21.48;;;9.40;;
61250;SDS011;47126;47.508;8.590;2024-03-07T12:22:49;20.85;;;9.50;;
61250;SDS011;47126;47.508;8.590;2024-03-07T12:25:18;22.15;;;9.48;;
61250;SDS011;47126;47.508;8.590;2024-03-07T12:27:47;22.63;;;9.18;;
61250;SDS011;47126;47.508;8.590;2024-03-07T12:30:16;21.40;;;9.60;;
61250;SDS011;47126;47.508;8.590;2024-03-07T12:32:51;21.80;;;10.65;;
61250;SDS011;47126;47.508;8.590;2024-03-07T12:35:17;21.02;;;9.32;;
61250;SDS011;47126;47.508;8.590;2024-03-07T12:37:43;23.35;;;10.43;;
61250;SDS011;47126;47.508;8.590;2024-03-07T12:40:11;24.00;;;10.57;;
61250;SDS011;47126;47.508;8.590;2024-03-07T12:42:45;22.63;;;9.18;;
61250;SDS011;47126;47.508;8.590;2024-03-07T12:45:11;28.00;;;11.88;;
61250;SDS011;47126;47.508;8.590;2024-03-07T12:47:45;25.15;;;11.70;;
61250;SDS011;47126;47.508;8.590;2024-03-07T12:50:12;27.33;;;12.68;;
61250;SDS011;47126;47.508;8.590;2024-03-07T12:52:38;24.05;;;11.30;;
61250;SDS011;47126;47.508;8.590;2024-03-07T12:55:05;26.98;;;11.30;;
61250;SDS011;47126;47.508;8.590;2024-03-07T12:57:31;23.38;;;9.98;;
61250;SDS011;47126;47.508;8.590;2024-03-07T12:59:57;26.90;;;11.20;;
61250;SDS011;47126;47.508;8.590;2024-03-07T13:02:23;29.58;;;12.20;;
61250;SDS011;47126;47.508;8.590;2024-03-07T13:04:52;30.13;;;12.95;;
61250;SDS011;47126;47.508;8.590;2024-03-07T13:07:18;31.27;;;13.43;;
61250;SDS011;47126;47.508;8.590;2024-03-07T13:09:45;24.63;;;11.55;;
61250;SDS011;47126;47.508;8.590;2024-03-07T13:12:13;26.65;;;11.68;;
61250;SDS011;47126;47.508;8.590;2024-03-07T13:14:39;24.25;;;10.93;;
61250;SDS011;47126;47.508;8.590;2024-03-07T13:17:08;23.17;;;10.88;;
61250;SDS011;47126;47.508;8.590;2024-03-07T13:19:34;22.13;;;10.32;;
61250;SDS011;47126;47.508;8.590;2024-03-07T13:22:03;26.10;;;9.95;;
61250;SDS011;47126;47.508;8.590;2024-03-07T13:24:31;19.70;;;9.80;;
61250;SDS011;47126;47.508;8.590;2024-03-07T13:27:00;25.45;;;11.23;;
61250;SDS011;47126;47.508;8.590;2024-03-07T13:29:26;24.67;;;11.18;;
61250;SDS011;47126;47.508;8.590;2024-03-07T13:31:53;22.92;;;10.20;;
61250;SDS011;47126;47.508;8.590;2024-03-07T13:34:21;22.20;;;10.73;;
61250;SDS011;47126;47.508;8.590;2024-03-07T13:36:50;22.88;;;10.85;;
61250;SDS011;47126;47.508;8.590;2024-03-07T13:39:16;25.50;;;10.63;;
61250;SDS011;47126;47.508;8.590;2024-03-07T13:41:43;26.05;;;10.57;;
61250;SDS011;47126;47.508;8.590;2024-03-07T13:44:16;22.25;;;10.25;;
61250;SDS011;47126;47.508;8.590;2024-03-07T13:46:44;23.70;;;11.05;;
61250;SDS011;47126;47.508;8.590;2024-03-07T13:49:10;24.25;;;11.32;;
61250;SDS011;47126;47.508;8.590;2024-03-07T13:51:39;25.42;;;11.77;;
61250;SDS011;47126;47.508;8.590;2024-03-07T13:54:18;32.08;;;12.30;;
61250;SDS011;47126;47.508;8.590;2024-03-07T14:00:04;31.70;;;14.25;;
61250;SDS011;47126;47.508;8.590;2024-03-07T14:02:57;29.73;;;12.55;;
61250;SDS011;47126;47.508;8.590;2024-03-07T14:11:01;27.15;;;10.98;;
61250;SDS011;47126;47.508;8.590;2024-03-07T14:13:40;29.10;;;12.57;;
61250;SDS011;47126;47.508;8.590;2024-03-07T14:19:13;27.20;;;11.75;;
61250;SDS011;47126;47.508;8.590;2024-03-07T14:21:49;27.17;;;11.82;;
61250;SDS011;47126;47.508;8.590;2024-03-07T14:29:38;28.83;;;11.88;;
61250;SDS011;47126;47.508;8.590;2024-03-07T14:32:11;26.07;;;12.53;;
61250;SDS011;47126;47.508;8.590;2024-03-07T14:37:32;33.33;;;14.70;;
61250;SDS011;47126;47.508;8.590;2024-03-07T14:40:08;37.22;;;15.52;;
61250;SDS011;47126;47.508;8.590;2024-03-07T14:42:36;39.60;;;16.60;;
61250;SDS011;47126;47.508;8.590;2024-03-07T14:45:02;39.42;;;16.27;;
61250;SDS011;47126;47.508;8.590;2024-03-07T14:47:32;38.40;;;16.38;;
61250;SDS011;47126;47.508;8.590;2024-03-07T14:49:59;44.25;;;17.58;;
61250;SDS011;47126;47.508;8.590;2024-03-07T14:52:26;40.35;;;15.25;;
61250;SDS011;47126;47.508;8.590;2024-03-07T14:54:54;38.78;;;16.23;;
61250;SDS011;47126;47.508;8.590;2024-03-07T14:57:23;38.20;;;15.45;;
61250;SDS011;47126;47.508;8.590;2024-03-07T14:59:49;39.15;;;16.10;;
61250;SDS011;47126;47.508;8.590;2024-03-07T15:02:16;41.22;;;16.30;;